Time;durP1;ratioP1;P1;durP2;ratioP2;P2;SDS_P1;SDS_P2;PMS_P1;PMS_P2;Temp;Humidity;BMP_temperature;BMP_pressure;BME280_temperature;BME280_humidity;BME280_pressure;Samples;Min_cycle;Max_cycle;Signal;HPM_P1;HPM_P2
2022/03/29 04:06:00;;;;;;;23.95;15.02;;;;;;;9.86;56.11;100107.94;5613760;31;80699;-56
2022/03/29 04:09:02;;;;;;;23.67;14.00;;;;;;;9.86;56.11;100107.94;5602327;31;33135;-57
2022/03/29 04:12:06;;;;;;;31.25;15.32;;;;;;;9.36;57.30;100109.16;5602056;31;33945;-57
2022/03/29 04:15:09;;;;;;;26.50;15.82;;;;;;;9.43;57.58;100111.50;5602140;31;34206;-57
2022/03/29 04:18:11;;;;;;;27.25;15.52;;;;;;;9.58;57.58;100104.16;5600290;31;33605;-57
2022/03/29 04:21:14;;;;;;;22.85;15.48;;;;;;;9.55;57.73;100102.06;5600440;31;33684;-57
2022/03/29 04:24:16;;;;;;;24.65;15.27;;;;;;;9.57;57.73;100107.09;5601174;31;33616;-57
2022/03/29 04:27:18;;;;;;;22.80;15.30;;;;;;;9.54;57.96;100107.69;5592462;31;33586;-57
2022/03/29 04:30:21;;;;;;;20.83;15.85;;;;;;;9.69;57.37;100104.87;5582002;32;33165;-57
2022/03/29 04:33:24;;;;;;;26.75;15.73;;;;;;;9.59;58.01;100094.25;5592568;31;34334;-57
2022/03/29 04:36:27;;;;;;;26.33;14.93;;;;;;;9.77;57.72;100098.16;5583298;31;34322;-57
2022/03/29 04:39:32;;;;;;;21.27;14.65;;;;;;;9.93;57.21;100104.13;5582901;31;34747;-57
2022/03/29 04:42:45;;;;;;;22.37;15.30;;;;;;;9.87;57.49;100098.03;5566252;31;33924;-57
2022/03/29 04:45:48;;;;;;;22.52;15.35;;;;;;;9.85;57.46;100095.63;5592818;31;34390;-57
2022/03/29 04:48:52;;;;;;;23.20;15.57;;;;;;;9.82;57.73;100088.16;5591392;31;34336;-57
2022/03/29 04:51:54;;;;;;;24.90;15.70;;;;;;;9.87;57.50;100079.31;5583346;31;34281;-57
2022/03/29 04:54:56;;;;;;;28.90;16.20;;;;;;;10.02;57.13;100084.50;5584544;31;33603;-57
2022/03/29 04:58:00;;;;;;;24.70;15.10;;;;;;;10.06;57.12;100082.03;5574203;31;34392;-57
2022/03/29 05:01:04;;;;;;;25.83;15.57;;;;;;;10.14;56.74;100083.31;5581460;31;33606;-57
2022/03/29 05:04:09;;;;;;;25.67;16.15;;;;;;;10.15;56.89;100074.19;5569946;31;33595;-57
2022/03/29 05:07:12;;;;;;;23.85;15.30;;;;;;;10.23;56.77;100070.87;5582235;31;33620;-57
2022/03/29 05:10:15;;;;;;;26.85;16.25;;;;;;;10.27;56.67;100074.63;5577280;31;33642;-57
2022/03/29 05:13:17;;;;;;;27.17;17.40;;;;;;;10.21;56.83;100075.75;5592727;31;33422;-57
2022/03/29 05:16:20;;;;;;;27.75;15.20;;;;;;;10.27;56.79;100069.28;5571077;31;34356;-57
2022/03/29 05:19:25;;;;;;;27.80;15.80;;;;;;;10.40;56.45;100067.75;5570194;31;33841;-57
2022/03/29 05:22:27;;;;;;;28.33;16.10;;;;;;;10.45;56.56;100083.81;5569146;32;33569;-57
2022/03/29 05:25:29;;;;;;;34.85;16.83;;;;;;;10.53;56.32;100078.63;5569373;32;33661;-57
2022/03/29 05:28:32;;;;;;;28.62;18.23;;;;;;;10.64;56.11;100081.97;5563131;31;33703;-57
2022/03/29 05:31:34;;;;;;;31.77;16.95;;;;;;;10.77;55.90;100081.25;5570534;31;33272;-57
2022/03/29 05:34:36;;;;;;;35.05;16.90;;;;;;;11.01;54.70;100073.12;5569017;31;33565;-57
2022/03/29 05:37:41;;;;;;;38.63;16.52;;;;;;;11.07;54.97;100078.44;5558780;31;33359;-57
2022/03/29 05:40:43;;;;;;;30.30;17.02;;;;;;;11.24;54.56;100087.56;5564175;32;33646;-57
2022/03/29 05:43:48;;;;;;;33.35;17.77;;;;;;;11.43;53.82;100087.53;5568652;31;33621;-57
2022/03/29 05:50:11;;;;;;;31.33;19.67;;;;;;;11.68;54.55;100088.22;5568974;31;34209;-57
2022/03/29 05:53:14;;;;;;;32.25;21.12;;;;;;;11.83;54.67;100087.16;5588254;31;34347;-57
2022/03/29 05:56:17;;;;;;;33.53;21.08;;;;;;;11.98;54.20;100085.00;5573591;31;34207;-57
2022/03/29 05:59:19;;;;;;;33.55;20.00;;;;;;;12.06;54.87;100086.25;5556511;31;33869;-57
2022/03/29 06:02:24;;;;;;;35.95;21.30;;;;;;;12.21;54.28;100077.87;5566065;31;34279;-57
2022/03/29 06:05:27;;;;;;;34.23;19.80;;;;;;;12.36;53.89;100084.84;5567048;31;34364;-57
2022/03/29 06:08:30;;;;;;;41.53;21.60;;;;;;;12.46;54.15;100078.47;5568407;31;34299;-57
2022/03/29 06:11:32;;;;;;;41.78;20.20;;;;;;;12.55;54.50;100071.31;5561255;32;34352;-57
2022/03/29 06:14:35;;;;;;;50.10;21.42;;;;;;;12.71;53.86;100077.16;5569001;31;34294;-57
2022/03/29 06:17:38;;;;;;;40.25;21.00;;;;;;;12.67;53.87;100068.09;5586995;31;33187;-57
2022/03/29 06:20:40;;;;;;;34.08;21.70;;;;;;;12.79;53.58;100068.38;5564106;31;34190;-57
2022/03/29 06:23:43;;;;;;;27.83;20.27;;;;;;;12.88;53.69;100073.81;5575806;31;32547;-57
2022/03/29 06:26:50;;;;;;;32.50;20.30;;;;;;;12.88;52.22;100076.50;5584934;31;33494;-58
2022/03/29 06:29:56;;;;;;;33.13;19.75;;;;;;;13.02;52.54;100066.53;5559694;31;31875;-57
2022/03/29 06:32:59;;;;;;;30.37;19.12;;;;;;;13.14;52.06;100061.41;5557910;31;33590;-57
2022/03/29 06:36:02;;;;;;;57.22;21.27;;;;;;;13.36;50.94;100062.53;5568626;32;33176;-57
2022/03/29 06:39:05;;;;;;;32.90;18.25;;;;;;;13.63;49.67;100057.00;5566990;31;33584;-57
2022/03/29 06:42:07;;;;;;;28.65;19.90;;;;;;;13.90;48.86;100055.25;5566130;31;34273;-57
2022/03/29 06:45:10;;;;;;;32.45;19.65;;;;;;;14.10;46.84;100054.72;5562946;31;33741;-57
2022/03/29 06:48:13;;;;;;;38.88;20.67;;;;;;;14.22;46.67;100058.72;5568776;31;33591;-57
2022/03/29 06:51:16;;;;;;;34.47;20.37;;;;;;;14.29;46.29;100050.97;5563535;31;33723;-57
2022/03/29 06:54:18;;;;;;;33.17;20.98;;;;;;;14.33;46.64;100058.09;5566482;31;34172;-57
2022/03/29 06:57:20;;;;;;;29.00;20.00;;;;;;;14.44;45.88;100053.22;5568345;31;34361;-57
2022/03/29 07:00:23;;;;;;;38.25;20.92;;;;;;;14.48;46.21;100050.69;5576342;31;33653;-57
2022/03/29 07:03:27;;;;;;;31.20;20.98;;;;;;;14.55;46.21;100048.38;5567667;31;32234;-57
2022/03/29 07:06:33;;;;;;;39.80;21.65;;;;;;;14.54;46.29;100052.19;5557513;31;33546;-58
2022/03/29 07:12:59;;;;;;;34.42;21.55;;;;;;;14.39;47.01;100050.66;5561845;31;33432;-58
2022/03/29 07:16:01;;;;;;;38.30;20.77;;;;;;;14.53;47.03;100045.16;5566541;31;33801;-57
2022/03/29 07:19:04;;;;;;;29.80;21.08;;;;;;;14.63;46.92;100041.38;5568579;31;33762;-57
2022/03/29 07:22:06;;;;;;;36.05;21.75;;;;;;;14.79;46.35;100039.81;5571508;31;33528;-57
2022/03/29 07:25:09;;;;;;;31.77;20.58;;;;;;;14.80;45.97;100039.53;5553986;32;33744;-57
2022/03/29 07:28:12;;;;;;;36.65;20.35;;;;;;;14.70;45.92;100041.72;5547612;32;34260;-57
2022/03/29 07:31:14;;;;;;;31.20;20.37;;;;;;;14.83;46.16;100035.38;5548690;31;33929;-57
2022/03/29 07:34:16;;;;;;;24.63;18.02;;;;;;;15.03;45.79;100047.44;5566980;31;33870;-58
2022/03/29 07:37:19;;;;;;;29.67;17.27;;;;;;;15.30;44.14;100026.63;5548860;31;34366;-57
2022/03/29 07:40:27;;;;;;;28.38;16.92;;;;;;;15.44;42.86;100030.72;5547224;32;33655;-57
2022/03/29 07:43:31;;;;;;;29.05;17.42;;;;;;;15.51;42.38;100030.25;5547897;31;33739;-57
2022/03/29 07:46:33;;;;;;;28.12;18.27;;;;;;;15.66;41.90;100027.06;5566023;31;33805;-57
2022/03/29 07:49:36;;;;;;;26.67;17.92;;;;;;;15.77;42.58;100030.22;5556567;31;33698;-57
2022/03/29 07:53:00;;;;;;;30.62;18.95;;;;;;;15.92;42.33;100021.53;5564434;32;33735;-57
2022/03/29 07:56:04;;;;;;;35.00;20.10;;;;;;;16.04;42.77;100017.38;5563443;31;33661;-57
2022/03/29 07:59:06;;;;;;;32.40;19.30;;;;;;;16.20;43.21;100023.81;5569788;31;34488;-57
2022/03/29 08:02:09;;;;;;;40.30;19.37;;;;;;;16.28;43.07;100016.78;5571379;31;34287;-57
2022/03/29 08:05:11;;;;;;;32.03;18.52;;;;;;;16.30;41.25;100019.97;5569843;31;33687;-57
2022/03/29 08:08:15;;;;;;;28.87;19.23;;;;;;;16.25;41.96;100026.31;5565627;31;33113;-57
2022/03/29 08:11:20;;;;;;;32.53;19.50;;;;;;;16.36;42.44;100024.06;5571189;31;34399;-57
2022/03/29 08:14:25;;;;;;;27.02;18.05;;;;;;;16.56;41.62;100019.78;5556932;32;32370;-57
2022/03/29 08:17:28;;;;;;;31.75;18.23;;;;;;;16.63;41.25;100014.66;5566768;32;33858;-57
2022/03/29 08:20:30;;;;;;;30.48;16.92;;;;;;;16.66;40.47;100017.50;5569300;31;34337;-57
2022/03/29 08:23:33;;;;;;;37.03;17.60;;;;;;;16.84;40.63;100009.25;5569344;31;34223;-58
2022/03/29 08:26:35;;;;;;;26.73;17.87;;;;;;;16.85;39.52;100008.94;5566421;32;33156;-57
2022/03/29 08:29:38;;;;;;;29.60;19.02;;;;;;;17.03;40.42;100006.87;5567117;31;33576;-57
2022/03/29 08:32:40;;;;;;;24.48;17.87;;;;;;;17.13;40.20;99998.34;5566478;31;33582;-57
2022/03/29 08:35:44;;;;;;;28.35;17.90;;;;;;;17.11;39.31;99994.37;5561285;31;33649;-57
2022/03/29 08:38:47;;;;;;;30.00;18.58;;;;;;;17.16;39.50;99991.47;5581360;31;33725;-58
2022/03/29 08:41:55;;;;;;;31.83;17.52;;;;;;;17.23;38.71;99990.91;5580642;31;33330;-57
2022/03/29 08:44:59;;;;;;;29.48;18.60;;;;;;;17.36;40.99;99995.25;5558683;32;34260;-57
2022/03/29 08:48:02;;;;;;;39.72;19.20;;;;;;;17.42;37.64;99988.50;5562849;31;33826;-57
2022/03/29 08:51:06;;;;;;;32.92;18.50;;;;;;;17.54;38.08;99995.84;5559245;31;33811;-57
2022/03/29 08:54:28;;;;;;;30.05;16.67;;;;;;;17.60;37.01;99983.66;5572429;31;33571;-57
2022/03/29 08:57:30;;;;;;;37.53;17.90;;;;;;;17.69;36.68;99978.16;5577589;31;34179;-58
2022/03/29 09:00:35;;;;;;;33.92;18.37;;;;;;;17.81;36.32;99975.47;5567100;31;33263;-57
2022/03/29 09:03:37;;;;;;;33.60;18.77;;;;;;;17.86;35.98;99966.31;5567010;31;33595;-58
2022/03/29 09:07:02;;;;;;;44.90;18.67;;;;;;;17.95;39.84;99967.78;5566658;31;34331;-58
2022/03/29 09:10:04;;;;;;;45.00;19.70;;;;;;;18.08;39.82;99968.59;5564787;31;33562;-57
2022/03/29 09:13:19;;;;;;;40.22;18.10;;;;;;;18.10;37.17;99963.59;5571147;31;34348;-58
2022/03/29 09:16:30;;;;;;;35.72;18.60;;;;;;;18.11;37.75;99957.03;5562744;32;33392;-57
2022/03/29 09:19:47;;;;;;;33.95;17.40;;;;;;;18.13;38.08;99954.00;5565511;31;34369;-58
2022/03/29 09:22:52;;;;;;;32.65;18.15;;;;;;;18.24;39.73;99955.09;5566420;31;34076;-58
2022/03/29 09:25:55;;;;;;;59.42;19.95;;;;;;;18.28;41.08;99951.38;5571004;31;33760;-58
2022/03/29 09:28:58;;;;;;;53.90;20.23;;;;;;;18.42;37.90;99937.44;5576003;31;33652;-57
2022/03/29 09:32:12;;;;;;;37.17;18.90;;;;;;;18.43;38.53;99947.13;5574599;31;34401;-58
2022/03/29 09:35:16;;;;;;;38.80;19.27;;;;;;;18.52;37.14;99939.66;5572896;31;34214;-57
2022/03/29 09:38:21;;;;;;;31.98;18.27;;;;;;;18.59;37.13;99938.28;5573092;31;33740;-58
2022/03/29 09:41:28;;;;;;;21.70;13.77;;;;;;;18.69;35.99;99940.50;5564775;31;34220;-58
2022/03/29 09:44:47;;;;;;;21.27;12.65;;;;;;;18.69;32.42;99941.28;5577719;31;33360;-58
2022/03/29 09:47:52;;;;;;;23.05;12.15;;;;;;;18.82;36.78;99939.34;5574503;31;32126;-58
2022/03/29 09:51:02;;;;;;;19.50;12.05;;;;;;;18.87;31.10;99927.44;5555458;31;34685;-57
2022/03/29 09:54:08;;;;;;;48.53;17.17;;;;;;;18.90;31.98;99927.53;5566865;31;32148;-57
2022/03/29 09:57:11;;;;;;;32.00;18.75;;;;;;;18.98;33.41;99923.09;5559094;31;33496;-58
2022/03/29 10:00:39;;;;;;;28.27;19.48;;;;;;;18.97;34.83;99925.03;5568407;31;33706;-58
2022/03/29 10:03:44;;;;;;;24.80;15.88;;;;;;;18.98;34.77;99928.53;5564229;31;33712;-58
2022/03/29 10:06:54;;;;;;;19.58;11.48;;;;;;;18.99;36.86;99913.81;5564244;31;32363;-58
2022/03/29 10:09:57;;;;;;;20.50;12.37;;;;;;;19.05;31.41;99914.34;5574619;31;32998;-58
2022/03/29 10:12:59;;;;;;;21.67;13.50;;;;;;;19.04;31.16;99905.41;5570413;31;34374;-58
2022/03/29 10:16:18;;;;;;;21.62;14.50;;;;;;;19.06;32.07;99903.13;5581443;31;33798;-58
2022/03/29 10:19:21;;;;;;;22.70;14.35;;;;;;;19.08;31.40;99895.44;5567700;31;34673;-58
2022/03/29 10:22:23;;;;;;;17.25;12.63;;;;;;;19.18;30.60;99884.03;5555555;31;33129;-58
2022/03/29 10:25:27;;;;;;;23.62;12.90;;;;;;;19.31;32.07;99883.97;5565345;31;34367;-57
2022/03/29 10:28:29;;;;;;;19.92;13.52;;;;;;;19.47;30.67;99876.59;5567513;31;33617;-58
2022/03/29 10:31:39;;;;;;;23.12;12.93;;;;;;;19.47;28.62;99877.38;5575249;31;34461;-57
2022/03/29 10:34:42;;;;;;;27.55;13.98;;;;;;;19.54;28.74;99863.16;5568963;31;34253;-57
2022/03/29 10:37:56;;;;;;;22.27;14.90;;;;;;;19.58;27.37;99866.75;5559536;32;34880;-58
2022/03/29 10:40:58;;;;;;;21.12;13.70;;;;;;;19.49;26.75;99856.06;5566671;31;32425;-57
2022/03/29 10:44:08;;;;;;;20.27;13.70;;;;;;;19.58;27.41;99846.94;5563483;31;34234;-57
2022/03/29 10:47:26;;;;;;;23.98;14.87;;;;;;;19.54;28.39;99846.84;5569709;31;34382;-57
2022/03/29 10:50:46;;;;;;;24.83;15.18;;;;;;;19.63;28.75;99847.47;5566627;31;33676;-57
2022/03/29 10:53:49;;;;;;;19.67;14.68;;;;;;;19.67;28.41;99837.47;5571194;31;33677;-58
2022/03/29 10:57:04;;;;;;;22.58;13.43;;;;;;;19.68;28.80;99833.59;5567522;31;33495;-57
2022/03/29 11:00:06;;;;;;;22.35;15.55;;;;;;;19.82;31.89;99829.62;5566358;31;33689;-57
2022/03/29 11:03:20;;;;;;;24.17;15.05;;;;;;;19.90;28.23;99828.63;5551282;31;34319;-57
2022/03/29 11:06:23;;;;;;;24.60;14.43;;;;;;;19.98;26.82;99818.69;5572436;31;34434;-57
2022/03/29 11:09:25;;;;;;;27.90;14.55;;;;;;;20.03;27.04;99805.56;5561606;31;33404;-57
2022/03/29 11:12:43;;;;;;;26.65;15.27;;;;;;;20.17;27.94;99802.37;5579400;31;34062;-57
2022/03/29 11:15:46;;;;;;;20.73;14.70;;;;;;;20.35;26.40;99798.06;5566133;31;34036;-58
2022/03/29 11:18:49;;;;;;;22.95;14.65;;;;;;;20.43;26.11;99790.84;5566241;32;33654;-57
2022/03/29 11:21:51;;;;;;;23.48;15.20;;;;;;;20.50;26.33;99777.34;5567633;31;33794;-57
2022/03/29 11:25:02;;;;;;;26.10;15.35;;;;;;;20.51;26.63;99781.66;5570940;31;33632;-57
2022/03/29 11:28:06;;;;;;;25.33;15.93;;;;;;;20.53;26.90;99760.31;5586501;31;34338;-57
2022/03/29 11:31:09;;;;;;;26.85;15.40;;;;;;;20.55;25.70;99768.09;5575889;31;33735;-57
2022/03/29 11:34:14;;;;;;;24.70;15.27;;;;;;;20.51;25.17;99756.38;5580033;31;33788;-57
2022/03/29 11:37:43;;;;;;;20.33;14.57;;;;;;;20.55;27.57;99751.78;5570290;31;33893;-57
2022/03/29 11:40:50;;;;;;;25.90;14.90;;;;;;;20.62;25.59;99751.88;5569244;31;33678;-57
2022/03/29 11:44:01;;;;;;;24.10;15.38;;;;;;;20.63;23.45;99743.38;5574275;31;34242;-57
2022/03/29 11:47:03;;;;;;;27.30;15.13;;;;;;;20.68;22.87;99750.44;5565451;31;33697;-57
2022/03/29 11:50:05;;;;;;;22.52;15.38;;;;;;;20.65;22.85;99741.06;5569897;31;33690;-57
2022/03/29 11:53:35;;;;;;;22.60;16.20;;;;;;;20.49;23.20;99737.62;5566893;32;33266;-57
2022/03/29 11:56:38;;;;;;;24.90;14.15;;;;;;;20.64;22.90;99725.09;5572753;31;33669;-57
2022/03/29 11:59:42;;;;;;;21.55;15.02;;;;;;;20.57;23.38;99722.25;5569393;31;33650;-57
2022/03/29 12:02:45;;;;;;;23.83;14.93;;;;;;;20.69;23.74;99715.81;5567121;31;34490;-57
2022/03/29 12:05:48;;;;;;;22.58;15.43;;;;;;;20.77;23.44;99710.13;5565573;31;33872;-57
2022/03/29 12:08:52;;;;;;;22.15;15.02;;;;;;;20.79;23.91;99712.47;5574003;31;34387;-57
2022/03/29 12:11:56;;;;;;;21.85;14.98;;;;;;;20.87;24.32;99722.34;5567053;32;33788;-57
2022/03/29 12:15:06;;;;;;;22.90;15.15;;;;;;;20.95;22.46;99710.41;5573691;31;33949;-57
2022/03/29 12:21:29;;;;;;;28.58;14.35;;;;;;;21.05;22.32;99695.38;5566490;32;33189;-57
2022/03/29 12:24:36;;;;;;;21.45;15.02;;;;;;;21.07;23.51;99699.31;5567324;32;33644;-57
2022/03/29 12:27:39;;;;;;;20.05;14.05;;;;;;;21.15;22.50;99688.50;5569415;31;33810;-57
2022/03/29 12:30:41;;;;;;;27.20;15.60;;;;;;;21.15;24.35;99674.88;5573434;31;33753;-57
2022/03/29 12:33:44;;;;;;;21.70;14.85;;;;;;;21.15;22.96;99674.88;5574068;31;33931;-57
2022/03/29 12:36:55;;;;;;;25.23;15.02;;;;;;;21.08;22.48;99679.06;5569684;32;34441;-57
2022/03/29 12:40:04;;;;;;;29.37;14.95;;;;;;;21.08;22.88;99679.06;5570642;31;34416;-57
2022/03/29 12:43:09;;;;;;;21.58;14.02;;;;;;;21.10;21.53;99674.03;5561285;32;34431;-57
2022/03/29 12:46:16;;;;;;;40.45;15.60;;;;;;;20.98;21.95;99657.91;5569808;32;34428;-57
2022/03/29 12:49:18;;;;;;;27.02;15.27;;;;;;;21.06;22.22;99656.06;5569442;32;33592;-57
2022/03/29 12:52:21;;;;;;;23.92;14.65;;;;;;;21.09;21.72;99649.87;5570055;31;33673;-57
2022/03/29 12:55:23;;;;;;;22.00;15.02;;;;;;;21.00;21.96;99654.81;5571690;31;34309;-57
2022/03/29 12:58:31;;;;;;;22.95;13.82;;;;;;;20.95;21.67;99639.56;5568574;31;33991;-57
2022/03/29 13:01:35;;;;;;;26.67;13.95;;;;;;;21.03;22.88;99630.34;5566170;32;33583;-57
2022/03/29 13:04:41;;;;;;;23.08;13.93;;;;;;;21.05;21.47;99628.03;5582383;31;33777;-57
2022/03/29 13:07:57;;;;;;;25.05;14.07;;;;;;;21.03;21.36;99630.34;5589599;31;33690;-57
2022/03/29 13:11:17;;;;;;;25.62;14.65;;;;;;;21.03;21.97;99624.12;5570382;31;32213;-57
2022/03/29 13:14:19;;;;;;;22.87;13.38;;;;;;;21.09;21.75;99617.97;5585674;31;33653;-57
2022/03/29 13:17:32;;;;;;;16.73;12.70;;;;;;;21.11;21.05;99614.88;5589249;31;33320;-58
2022/03/29 13:20:36;;;;;;;22.10;13.57;;;;;;;21.14;21.22;99619.59;5587789;31;33369;-57
2022/03/29 13:23:41;;;;;;;20.65;13.48;;;;;;;21.18;21.12;99614.94;5589177;31;33351;-57
2022/03/29 13:26:50;;;;;;;21.37;13.38;;;;;;;21.17;21.33;99607.94;5587497;31;33591;-57
2022/03/29 13:29:52;;;;;;;19.17;12.63;;;;;;;21.15;21.81;99606.72;5577830;31;33603;-57
2022/03/29 13:32:55;;;;;;;22.20;13.05;;;;;;;21.17;21.60;99607.16;5570061;31;33422;-58
2022/03/29 13:35:58;;;;;;;24.48;13.07;;;;;;;21.31;21.46;99590.97;5553768;31;33660;-57
2022/03/29 13:39:01;;;;;;;24.92;11.73;;;;;;;21.39;21.23;99602.75;5588652;31;33598;-57
2022/03/29 13:42:05;;;;;;;22.40;13.73;;;;;;;21.40;21.96;99593.44;5589148;31;33706;-57
2022/03/29 13:45:08;;;;;;;22.83;13.25;;;;;;;21.35;21.46;99589.87;5588071;31;34373;-57
2022/03/29 13:48:12;;;;;;;23.35;13.60;;;;;;;21.32;21.96;99590.63;5569358;31;34352;-57
2022/03/29 13:51:16;;;;;;;20.55;12.23;;;;;;;21.27;21.49;99584.69;5569380;31;33664;-57
2022/03/29 13:54:18;;;;;;;25.33;12.52;;;;;;;21.18;21.67;99581.47;5569539;32;33669;-57
2022/03/29 13:57:21;;;;;;;45.53;13.82;;;;;;;21.16;22.26;99572.88;5576405;31;33695;-57
2022/03/29 14:00:23;;;;;;;21.95;12.60;;;;;;;21.14;22.01;99565.06;5588695;31;34091;-57
2022/03/29 14:03:28;;;;;;;18.37;11.77;;;;;;;21.13;22.19;99566.25;5578622;31;33608;-57
2022/03/29 14:06:30;;;;;;;16.95;11.93;;;;;;;21.21;22.56;99554.25;5569266;32;33913;-57
2022/03/29 14:09:33;;;;;;;20.42;12.15;;;;;;;21.20;21.52;99560.88;5580276;31;34448;-57
2022/03/29 14:12:35;;;;;;;22.87;12.07;;;;;;;21.25;21.51;99554.28;5579893;31;33865;-58
2022/03/29 14:15:43;;;;;;;20.83;12.73;;;;;;;21.23;21.98;99557.41;5568912;32;33265;-57
2022/03/29 14:18:46;;;;;;;16.70;12.23;;;;;;;21.29;22.09;99558.66;5574770;31;33657;-58
2022/03/29 14:21:48;;;;;;;20.60;12.73;;;;;;;21.27;22.20;99557.44;5549576;32;34412;-57
2022/03/29 14:24:50;;;;;;;22.08;12.95;;;;;;;21.20;22.13;99563.59;5551322;31;33673;-57
2022/03/29 14:27:53;;;;;;;22.95;13.55;;;;;;;21.15;21.83;99557.69;5570936;31;34562;-57
2022/03/29 14:30:58;;;;;;;31.98;11.63;;;;;;;21.08;22.30;99550.97;5582387;31;33879;-57
2022/03/29 14:34:02;;;;;;;17.90;11.63;;;;;;;21.07;22.84;99549.41;5569996;31;34363;-57
2022/03/29 14:37:05;;;;;;;22.98;12.48;;;;;;;21.12;23.10;99554.56;5549631;32;33691;-57
2022/03/29 14:40:10;;;;;;;20.67;12.23;;;;;;;20.97;22.33;99552.81;5574629;31;33655;-57
2022/03/29 14:43:13;;;;;;;17.30;12.40;;;;;;;20.86;22.71;99540.97;5570580;31;34469;-57
2022/03/29 14:46:15;;;;;;;18.87;12.30;;;;;;;20.82;22.85;99540.12;5578253;31;33723;-57
2022/03/29 14:49:17;;;;;;;19.50;13.10;;;;;;;20.83;23.31;99539.78;5580539;31;33335;-57
2022/03/29 14:52:20;;;;;;;18.50;13.73;;;;;;;20.77;23.19;99532.31;5568400;32;33692;-57
2022/03/29 14:55:25;;;;;;;19.42;13.15;;;;;;;20.72;23.75;99541.56;5568707;31;33730;-57
2022/03/29 14:58:27;;;;;;;23.07;14.40;;;;;;;20.67;24.29;99531.00;5568963;31;34386;-57
2022/03/29 15:01:29;;;;;;;20.42;13.48;;;;;;;20.68;24.14;99523.63;5568647;32;33677;-57
2022/03/29 15:04:32;;;;;;;19.73;13.10;;;;;;;20.65;24.17;99525.12;5568906;32;34325;-57
2022/03/29 15:07:41;;;;;;;21.27;14.00;;;;;;;20.69;24.15;99528.69;5568798;32;33985;-57
2022/03/29 15:10:43;;;;;;;23.50;13.40;;;;;;;20.68;24.50;99523.63;5568732;32;34304;-57
2022/03/29 15:13:46;;;;;;;20.27;13.43;;;;;;;20.59;24.38;99519.22;5568663;32;33660;-58
2022/03/29 15:16:49;;;;;;;20.90;13.57;;;;;;;20.57;24.21;99512.59;5568540;32;33787;-57
2022/03/29 15:19:51;;;;;;;21.85;13.73;;;;;;;20.51;24.61;99514.84;5568553;32;34360;-57
2022/03/29 15:22:54;;;;;;;17.10;12.35;;;;;;;20.52;24.46;99508.22;5568545;32;34018;-57
2022/03/29 15:25:56;;;;;;;23.35;13.02;;;;;;;20.53;24.71;99503.56;5568745;32;34406;-57
2022/03/29 15:28:58;;;;;;;17.70;13.20;;;;;;;20.50;24.78;99499.63;5568582;32;33226;-57
2022/03/29 15:32:01;;;;;;;18.37;12.65;;;;;;;20.48;24.73;99495.69;5568603;32;33683;-57
